Flight Track Log - Related Links

Times and Time Zones

All times are in EDT time to prevent confusion due to time zone crossing. See the UCA3597 flight status page for this flight to view local times or setup timezone preferences in your user account.

Time Position Orientation Groundspeed Altitude Reporting Facility
EDT Latitude Longitude Course Direction KTS MPH feet Rate Location/Type
Wed 05:41:00 PM 39.3873 -77.2689 19° North  Level Estimated
Wed 05:42:00 PM 39.4362 -77.2476 19° North  Level Estimated
Wed 05:43:00 PM 39.4851 -77.2262 19° North  Level Estimated
Wed 05:44:00 PM 39.5339 -77.2047 19° North  Level Estimated
Wed 05:45:00 PM 39.5827 -77.1833 19° North  Level Estimated
Wed 05:46:00 PM 39.6316 -77.1618 19° North  Level Estimated
Wed 05:47:00 PM 39.6933 -77.1346 19° North  Level Estimated
Wed 05:48:00 PM 39.7551 -77.1073 19° North  Level Estimated
Wed 05:49:00 PM 39.8168 -77.0800 19° North  Level Estimated
Wed 05:50:00 PM 39.8785 -77.0527 19° North  Level Estimated
Wed 05:51:00 PM 39.9402 -77.0252 19° North  Level Estimated
Wed 05:52:00 PM 40.0019 -76.9978 19° North  Level Estimated
Wed 05:53:00 PM 40.0636 -76.9703 19° North  Level Estimated
Wed 05:54:00 PM 40.1253 -76.9427 19° North  Level Estimated
Wed 05:55:00 PM 40.1870 -76.9151 19° North  Level Estimated
Wed 05:56:00 PM 40.2487 -76.8874 19° North  Level Estimated
Wed 05:57:00 PM 40.3104 -76.8597 19° North  Level Estimated
Wed 05:58:00 PM 40.3720 -76.8320 19° North  Level Estimated
Wed 05:59:00 PM 40.4337 -76.8042 19° North  Level Estimated
Wed 06:00:00 PM 40.4953 -76.7763 19° North  Level Estimated
Wed 06:01:00 PM 40.5570 -76.7484 19° North  Level Estimated
Wed 06:02:00 PM 40.6186 -76.7204 19° North  Level Estimated
Wed 06:03:00 PM 40.6803 -76.6924 19° North  Level Estimated
Wed 06:04:00 PM 40.7419 -76.6643 19° North  Level Estimated
Wed 06:05:00 PM 40.8035 -76.6362 19° North  Level Estimated
Wed 06:06:00 PM 40.8651 -76.6080 19° North  Level Estimated
Wed 06:07:00 PM 40.9267 -76.5798 19° North  Level Estimated
Wed 06:08:00 PM 40.9883 -76.5516 19° North  Level Estimated
Wed 06:09:00 PM 41.0499 -76.5232 19° North  Level Estimated
Wed 06:10:00 PM 41.1115 -76.4948 19° North  Level Estimated
Wed 06:11:00 PM 41.1731 -76.4664 19° North  Level Estimated
Wed 06:12:00 PM 41.2347 -76.4379 19° North  Level Estimated
Wed 06:13:00 PM 41.2962 -76.4094 19° North  Level Estimated
Wed 06:14:00 PM 41.3578 -76.3808 19° North  Level Estimated
Wed 06:15:00 PM 41.4193 -76.3521 19° North  Level Estimated
Wed 06:16:00 PM 41.4809 -76.3234 19° North  Level Estimated
Wed 06:17:00 PM 41.5424 -76.2947 19° North  Level Estimated
Wed 06:18:00 PM 41.6039 -76.2658 19° North  Level Estimated
Wed 06:19:00 PM 41.6655 -76.2370 19° North  Level Estimated
Wed 06:20:00 PM 41.7270 -76.2081 19° North  Level Estimated
Wed 06:21:00 PM 41.7885 -76.1791 19° North  Level Estimated
Wed 06:22:00 PM 41.8500 -76.1500 19° North  Level Estimated
Wed 06:23:00 PM 41.9115 -76.1209 19° North  Level Estimated
Wed 06:24:00 PM 41.9730 -76.0918 19° North  Level Estimated
Wed 06:25:00 PM 42.0344 -76.0626 19° North  Level Estimated
Wed 06:26:00 PM 42.0959 -76.0333 19° North  Level Estimated
Wed 06:27:00 PM 42.1574 -76.0040 19° North  Level Estimated
Wed 06:28:00 PM 42.2084 -75.9796 19° North  Level Estimated
Wed 06:29:00 PM 42.2084 -75.9796 35° Northeast  Level Estimated
Wed 06:30:00 PM 42.2084 -75.9796 35° Northeast  Level Estimated
Wed 06:31:00 PM 42.2084 -75.9796 35° Northeast  Level Estimated
Wed 06:32:00 PM 42.2084 -75.9796 35° Northeast  Level Estimated
Wed 06:33:00 PM 42.2084 -75.9796 35° Northeast  Level Estimated
Wed 06:34:00 PM 42.2084 -75.9796 35° Northeast  Level Estimated
Wed 06:35:00 PM 42.2084 -75.9796 35° Northeast  Level Estimated
Wed 06:36:00 PM 42.2084 -75.9796 35° Northeast  Level Estimated
Wed 06:37:00 PM 42.2084 -75.9796 35° Northeast  Level Estimated
Wed 06:38:00 PM 42.2084 -75.9796 35° Northeast  Level Estimated
Wed 06:39:00 PM 42.2084 -75.9796 35° Northeast  Level Estimated
Wed 06:40:00 PM 42.2084 -75.9796 35° Northeast  Level Estimated
Wed 06:41:00 PM 42.2084 -75.9796 35° Northeast  Level Estimated

Login

Don't have an account? Register now (free) for customized features, flight alerts, and more!